sensor_id;sensor_type;location;lat;lon;timestamp;P1;durP1;ratioP1;P2;durP2;ratioP2
8349;SDS011;60699;48.946;8.412;2023-03-01T00:01:17;11.60;;;8.68;;
8349;SDS011;60699;48.946;8.412;2023-03-01T00:03:45;11.73;;;8.65;;
8349;SDS011;60699;48.946;8.412;2023-03-01T00:06:12;14.02;;;8.40;;
8349;SDS011;60699;48.946;8.412;2023-03-01T00:08:39;12.77;;;9.13;;
8349;SDS011;60699;48.946;8.412;2023-03-01T00:11:10;11.50;;;7.70;;
8349;SDS011;60699;48.946;8.412;2023-03-01T00:13:38;9.73;;;6.95;;
8349;SDS011;60699;48.946;8.412;2023-03-01T00:16:06;12.70;;;8.05;;
8349;SDS011;60699;48.946;8.412;2023-03-01T00:18:33;14.18;;;7.43;;
8349;SDS011;60699;48.946;8.412;2023-03-01T00:21:01;12.30;;;7.57;;
8349;SDS011;60699;48.946;8.412;2023-03-01T00:23:28;13.93;;;7.82;;
8349;SDS011;60699;48.946;8.412;2023-03-01T00:25:55;9.40;;;7.57;;
8349;SDS011;60699;48.946;8.412;2023-03-01T00:28:24;12.48;;;7.50;;
8349;SDS011;60699;48.946;8.412;2023-03-01T00:30:51;16.25;;;7.75;;
8349;SDS011;60699;48.946;8.412;2023-03-01T00:33:18;10.27;;;6.38;;
8349;SDS011;60699;48.946;8.412;2023-03-01T00:35:45;9.73;;;7.20;;
8349;SDS011;60699;48.946;8.412;2023-03-01T00:38:12;13.40;;;8.90;;
8349;SDS011;60699;48.946;8.412;2023-03-01T00:40:39;8.20;;;7.15;;
8349;SDS011;60699;48.946;8.412;2023-03-01T00:43:06;9.77;;;8.10;;
8349;SDS011;60699;48.946;8.412;2023-03-01T00:45:34;12.68;;;7.45;;
8349;SDS011;60699;48.946;8.412;2023-03-01T00:48:01;16.33;;;9.00;;
8349;SDS011;60699;48.946;8.412;2023-03-01T00:50:28;13.57;;;7.80;;
8349;SDS011;60699;48.946;8.412;2023-03-01T00:52:55;12.75;;;8.15;;
8349;SDS011;60699;48.946;8.412;2023-03-01T00:55:23;17.80;;;8.10;;
8349;SDS011;60699;48.946;8.412;2023-03-01T00:57:50;12.27;;;8.88;;
8349;SDS011;60699;48.946;8.412;2023-03-01T01:00:17;11.10;;;7.88;;
8349;SDS011;60699;48.946;8.412;2023-03-01T01:02:45;12.07;;;8.45;;
8349;SDS011;60699;48.946;8.412;2023-03-01T01:05:13;16.13;;;8.95;;
8349;SDS011;60699;48.946;8.412;2023-03-01T01:07:45;14.02;;;9.23;;
8349;SDS011;60699;48.946;8.412;2023-03-01T01:10:13;15.50;;;9.02;;
8349;SDS011;60699;48.946;8.412;2023-03-01T01:12:41;10.10;;;7.40;;
8349;SDS011;60699;48.946;8.412;2023-03-01T01:15:09;12.80;;;8.50;;
8349;SDS011;60699;48.946;8.412;2023-03-01T01:17:38;10.65;;;7.50;;
8349;SDS011;60699;48.946;8.412;2023-03-01T01:20:07;14.40;;;9.02;;
8349;SDS011;60699;48.946;8.412;2023-03-01T01:22:34;16.58;;;9.15;;
8349;SDS011;60699;48.946;8.412;2023-03-01T01:25:01;13.57;;;8.63;;
8349;SDS011;60699;48.946;8.412;2023-03-01T01:27:28;15.32;;;9.82;;
8349;SDS011;60699;48.946;8.412;2023-03-01T01:29:55;13.80;;;7.75;;
8349;SDS011;60699;48.946;8.412;2023-03-01T01:32:22;11.50;;;7.85;;
8349;SDS011;60699;48.946;8.412;2023-03-01T01:34:49;12.25;;;8.45;;
8349;SDS011;60699;48.946;8.412;2023-03-01T01:37:18;15.30;;;9.10;;
8349;SDS011;60699;48.946;8.412;2023-03-01T01:39:45;12.90;;;8.23;;
8349;SDS011;60699;48.946;8.412;2023-03-01T01:42:12;15.32;;;8.20;;
8349;SDS011;60699;48.946;8.412;2023-03-01T01:44:42;13.32;;;8.75;;
8349;SDS011;60699;48.946;8.412;2023-03-01T01:47:11;12.48;;;7.75;;
8349;SDS011;60699;48.946;8.412;2023-03-01T01:49:41;9.38;;;7.57;;
8349;SDS011;60699;48.946;8.412;2023-03-01T01:52:09;11.57;;;7.47;;
8349;SDS011;60699;48.946;8.412;2023-03-01T01:54:40;12.05;;;8.63;;
8349;SDS011;60699;48.946;8.412;2023-03-01T01:57:11;11.82;;;7.30;;
8349;SDS011;60699;48.946;8.412;2023-03-01T01:59:39;12.60;;;9.38;;
8349;SDS011;60699;48.946;8.412;2023-03-01T02:02:07;12.00;;;7.78;;
8349;SDS011;60699;48.946;8.412;2023-03-01T02:04:34;13.73;;;8.95;;
8349;SDS011;60699;48.946;8.412;2023-03-01T02:07:02;10.45;;;8.00;;
8349;SDS011;60699;48.946;8.412;2023-03-01T02:09:31;14.23;;;7.45;;
8349;SDS011;60699;48.946;8.412;2023-03-01T02:12:00;10.77;;;7.97;;
8349;SDS011;60699;48.946;8.412;2023-03-01T02:14:27;15.38;;;8.25;;
8349;SDS011;60699;48.946;8.412;2023-03-01T02:16:54;10.70;;;6.82;;
8349;SDS011;60699;48.946;8.412;2023-03-01T02:19:26;11.30;;;8.35;;
8349;SDS011;60699;48.946;8.412;2023-03-01T02:21:56;12.45;;;8.57;;
8349;SDS011;60699;48.946;8.412;2023-03-01T02:24:28;10.90;;;7.43;;
8349;SDS011;60699;48.946;8.412;2023-03-01T02:26:59;11.68;;;8.45;;
8349;SDS011;60699;48.946;8.412;2023-03-01T02:29:28;9.38;;;8.38;;
8349;SDS011;60699;48.946;8.412;2023-03-01T02:31:56;13.52;;;9.05;;
8349;SDS011;60699;48.946;8.412;2023-03-01T02:34:24;11.65;;;7.20;;
8349;SDS011;60699;48.946;8.412;2023-03-01T02:36:52;12.45;;;7.63;;
8349;SDS011;60699;48.946;8.412;2023-03-01T02:39:22;11.55;;;7.95;;
8349;SDS011;60699;48.946;8.412;2023-03-01T02:41:51;12.75;;;9.60;;
8349;SDS011;60699;48.946;8.412;2023-03-01T02:44:19;23.83;;;8.48;;
8349;SDS011;60699;48.946;8.412;2023-03-01T02:46:48;13.68;;;8.02;;
8349;SDS011;60699;48.946;8.412;2023-03-01T02:49:17;11.10;;;8.27;;
8349;SDS011;60699;48.946;8.412;2023-03-01T02:51:47;10.07;;;7.95;;
8349;SDS011;60699;48.946;8.412;2023-03-01T02:54:16;13.57;;;8.57;;
8349;SDS011;60699;48.946;8.412;2023-03-01T02:56:44;10.15;;;6.70;;
8349;SDS011;60699;48.946;8.412;2023-03-01T02:59:14;12.75;;;9.57;;
8349;SDS011;60699;48.946;8.412;2023-03-01T03:01:41;10.70;;;8.18;;
8349;SDS011;60699;48.946;8.412;2023-03-01T03:04:11;10.32;;;7.75;;
8349;SDS011;60699;48.946;8.412;2023-03-01T03:06:42;13.30;;;7.78;;
8349;SDS011;60699;48.946;8.412;2023-03-01T03:09:09;14.35;;;8.18;;
8349;SDS011;60699;48.946;8.412;2023-03-01T03:11:36;20.25;;;9.15;;
8349;SDS011;60699;48.946;8.412;2023-03-01T03:14:04;14.55;;;10.55;;
8349;SDS011;60699;48.946;8.412;2023-03-01T03:16:39;11.57;;;8.15;;
8349;SDS011;60699;48.946;8.412;2023-03-01T03:19:06;11.35;;;8.65;;
8349;SDS011;60699;48.946;8.412;2023-03-01T03:21:34;15.65;;;8.35;;
8349;SDS011;60699;48.946;8.412;2023-03-01T03:24:01;12.43;;;8.45;;
8349;SDS011;60699;48.946;8.412;2023-03-01T03:26:29;16.77;;;9.75;;
8349;SDS011;60699;48.946;8.412;2023-03-01T03:28:56;12.13;;;8.43;;
8349;SDS011;60699;48.946;8.412;2023-03-01T03:31:23;12.10;;;8.55;;
8349;SDS011;60699;48.946;8.412;2023-03-01T03:33:50;17.17;;;9.27;;
8349;SDS011;60699;48.946;8.412;2023-03-01T03:36:17;14.45;;;9.20;;
8349;SDS011;60699;48.946;8.412;2023-03-01T03:38:46;14.80;;;10.40;;
8349;SDS011;60699;48.946;8.412;2023-03-01T03:41:13;13.35;;;8.40;;
8349;SDS011;60699;48.946;8.412;2023-03-01T03:43:40;13.75;;;9.10;;
8349;SDS011;60699;48.946;8.412;2023-03-01T03:46:08;13.27;;;8.43;;
8349;SDS011;60699;48.946;8.412;2023-03-01T03:48:36;14.20;;;7.53;;
8349;SDS011;60699;48.946;8.412;2023-03-01T03:51:04;14.48;;;9.32;;
8349;SDS011;60699;48.946;8.412;2023-03-01T03:53:31;11.73;;;7.90;;
8349;SDS011;60699;48.946;8.412;2023-03-01T03:56:00;15.98;;;8.50;;
8349;SDS011;60699;48.946;8.412;2023-03-01T03:58:27;17.05;;;9.43;;
8349;SDS011;60699;48.946;8.412;2023-03-01T04:00:55;11.93;;;7.60;;
8349;SDS011;60699;48.946;8.412;2023-03-01T04:03:22;16.85;;;9.23;;
8349;SDS011;60699;48.946;8.412;2023-03-01T04:05:50;14.82;;;7.20;;
8349;SDS011;60699;48.946;8.412;2023-03-01T04:08:17;13.95;;;8.90;;
8349;SDS011;60699;48.946;8.412;2023-03-01T04:10:46;12.07;;;8.65;;
8349;SDS011;60699;48.946;8.412;2023-03-01T04:13:16;18.55;;;9.77;;
8349;SDS011;60699;48.946;8.412;2023-03-01T04:15:44;10.82;;;8.55;;
8349;SDS011;60699;48.946;8.412;2023-03-01T04:18:12;12.95;;;9.15;;
8349;SDS011;60699;48.946;8.412;2023-03-01T04:20:39;13.57;;;9.00;;
8349;SDS011;60699;48.946;8.412;2023-03-01T04:23:07;16.02;;;10.77;;
8349;SDS011;60699;48.946;8.412;2023-03-01T04:25:38;14.27;;;8.77;;
8349;SDS011;60699;48.946;8.412;2023-03-01T04:28:05;18.40;;;11.00;;
8349;SDS011;60699;48.946;8.412;2023-03-01T04:30:34;17.75;;;9.95;;
8349;SDS011;60699;48.946;8.412;2023-03-01T04:33:02;16.42;;;8.98;;
8349;SDS011;60699;48.946;8.412;2023-03-01T04:35:29;19.50;;;10.77;;
8349;SDS011;60699;48.946;8.412;2023-03-01T04:37:56;16.25;;;9.40;;
8349;SDS011;60699;48.946;8.412;2023-03-01T04:40:23;15.07;;;9.75;;
8349;SDS011;60699;48.946;8.412;2023-03-01T04:42:51;14.95;;;10.10;;
8349;SDS011;60699;48.946;8.412;2023-03-01T04:45:18;13.20;;;8.73;;
8349;SDS011;60699;48.946;8.412;2023-03-01T04:47:47;15.00;;;10.50;;
8349;SDS011;60699;48.946;8.412;2023-03-01T04:50:15;16.23;;;8.90;;
8349;SDS011;60699;48.946;8.412;2023-03-01T04:52:42;13.70;;;9.20;;
8349;SDS011;60699;48.946;8.412;2023-03-01T04:55:10;17.52;;;10.43;;
8349;SDS011;60699;48.946;8.412;2023-03-01T04:57:37;17.30;;;9.63;;
8349;SDS011;60699;48.946;8.412;2023-03-01T05:00:05;15.70;;;9.55;;
8349;SDS011;60699;48.946;8.412;2023-03-01T05:02:47;19.63;;;11.30;;
8349;SDS011;60699;48.946;8.412;2023-03-01T05:05:18;17.85;;;9.40;;
8349;SDS011;60699;48.946;8.412;2023-03-01T05:07:45;16.60;;;9.55;;
8349;SDS011;60699;48.946;8.412;2023-03-01T05:10:12;16.55;;;10.70;;
8349;SDS011;60699;48.946;8.412;2023-03-01T05:12:39;14.65;;;10.65;;
8349;SDS011;60699;48.946;8.412;2023-03-01T05:15:06;15.93;;;9.50;;
8349;SDS011;60699;48.946;8.412;2023-03-01T05:17:34;19.48;;;11.00;;
8349;SDS011;60699;48.946;8.412;2023-03-01T05:20:02;19.83;;;10.95;;
8349;SDS011;60699;48.946;8.412;2023-03-01T05:22:33;12.70;;;10.15;;
8349;SDS011;60699;48.946;8.412;2023-03-01T05:25:00;13.07;;;10.10;;
8349;SDS011;60699;48.946;8.412;2023-03-01T05:27:27;19.85;;;10.90;;
8349;SDS011;60699;48.946;8.412;2023-03-01T05:29:54;13.77;;;9.00;;
8349;SDS011;60699;48.946;8.412;2023-03-01T05:32:21;15.45;;;9.30;;
8349;SDS011;60699;48.946;8.412;2023-03-01T05:34:48;15.85;;;9.13;;
8349;SDS011;60699;48.946;8.412;2023-03-01T05:37:18;15.40;;;10.10;;
8349;SDS011;60699;48.946;8.412;2023-03-01T05:39:45;13.88;;;9.80;;
8349;SDS011;60699;48.946;8.412;2023-03-01T05:42:15;15.43;;;9.38;;
8349;SDS011;60699;48.946;8.412;2023-03-01T05:44:42;25.20;;;12.98;;
8349;SDS011;60699;48.946;8.412;2023-03-01T05:47:10;19.83;;;11.52;;
8349;SDS011;60699;48.946;8.412;2023-03-01T05:49:37;18.30;;;11.23;;
8349;SDS011;60699;48.946;8.412;2023-03-01T05:52:04;19.55;;;10.13;;
8349;SDS011;60699;48.946;8.412;2023-03-01T05:54:32;13.18;;;9.98;;
8349;SDS011;60699;48.946;8.412;2023-03-01T05:56:59;14.35;;;8.68;;
8349;SDS011;60699;48.946;8.412;2023-03-01T05:59:26;20.85;;;9.45;;
8349;SDS011;60699;48.946;8.412;2023-03-01T06:01:53;16.63;;;9.95;;
8349;SDS011;60699;48.946;8.412;2023-03-01T06:04:20;16.13;;;10.52;;
8349;SDS011;60699;48.946;8.412;2023-03-01T06:06:47;19.10;;;10.43;;
8349;SDS011;60699;48.946;8.412;2023-03-01T06:09:14;16.92;;;10.30;;
8349;SDS011;60699;48.946;8.412;2023-03-01T06:11:43;18.00;;;9.73;;
8349;SDS011;60699;48.946;8.412;2023-03-01T06:14:10;18.58;;;12.13;;
8349;SDS011;60699;48.946;8.412;2023-03-01T06:16:39;15.80;;;11.00;;
8349;SDS011;60699;48.946;8.412;2023-03-01T06:19:06;19.20;;;12.00;;
8349;SDS011;60699;48.946;8.412;2023-03-01T06:21:33;20.52;;;11.35;;
8349;SDS011;60699;48.946;8.412;2023-03-01T06:24:00;16.30;;;10.43;;
8349;SDS011;60699;48.946;8.412;2023-03-01T06:26:27;16.42;;;11.02;;
8349;SDS011;60699;48.946;8.412;2023-03-01T06:28:56;14.57;;;8.70;;
8349;SDS011;60699;48.946;8.412;2023-03-01T06:31:23;20.30;;;10.77;;
8349;SDS011;60699;48.946;8.412;2023-03-01T06:33:50;19.17;;;11.13;;
8349;SDS011;60699;48.946;8.412;2023-03-01T06:36:17;18.48;;;10.27;;
8349;SDS011;60699;48.946;8.412;2023-03-01T06:38:46;20.35;;;10.15;;
8349;SDS011;60699;48.946;8.412;2023-03-01T06:41:13;17.17;;;10.35;;
8349;SDS011;60699;48.946;8.412;2023-03-01T06:43:40;17.83;;;8.93;;
8349;SDS011;60699;48.946;8.412;2023-03-01T06:46:08;17.35;;;12.80;;
8349;SDS011;60699;48.946;8.412;2023-03-01T06:48:35;14.50;;;9.20;;
8349;SDS011;60699;48.946;8.412;2023-03-01T06:51:02;17.05;;;9.85;;
8349;SDS011;60699;48.946;8.412;2023-03-01T06:53:29;19.27;;;11.13;;
8349;SDS011;60699;48.946;8.412;2023-03-01T06:55:57;24.40;;;11.05;;
8349;SDS011;60699;48.946;8.412;2023-03-01T06:58:25;19.13;;;10.10;;
8349;SDS011;60699;48.946;8.412;2023-03-01T07:00:52;24.55;;;11.40;;
8349;SDS011;60699;48.946;8.412;2023-03-01T07:03:20;15.43;;;9.13;;
8349;SDS011;60699;48.946;8.412;2023-03-01T07:05:48;18.80;;;10.55;;
8349;SDS011;60699;48.946;8.412;2023-03-01T07:08:16;19.55;;;12.18;;
8349;SDS011;60699;48.946;8.412;2023-03-01T07:10:43;18.40;;;9.55;;
8349;SDS011;60699;48.946;8.412;2023-03-01T07:13:10;22.77;;;11.98;;
8349;SDS011;60699;48.946;8.412;2023-03-01T07:15:39;17.83;;;11.20;;
8349;SDS011;60699;48.946;8.412;2023-03-01T07:18:07;18.75;;;11.55;;
8349;SDS011;60699;48.946;8.412;2023-03-01T07:20:35;16.65;;;9.75;;
8349;SDS011;60699;48.946;8.412;2023-03-01T07:23:02;18.20;;;11.10;;
8349;SDS011;60699;48.946;8.412;2023-03-01T07:25:29;18.42;;;11.07;;
8349;SDS011;60699;48.946;8.412;2023-03-01T07:27:57;19.00;;;9.38;;
8349;SDS011;60699;48.946;8.412;2023-03-01T07:30:24;20.88;;;11.65;;
8349;SDS011;60699;48.946;8.412;2023-03-01T07:32:53;13.95;;;10.38;;
8349;SDS011;60699;48.946;8.412;2023-03-01T07:35:20;22.60;;;12.77;;
8349;SDS011;60699;48.946;8.412;2023-03-01T07:37:48;17.80;;;12.07;;
8349;SDS011;60699;48.946;8.412;2023-03-01T07:40:15;16.67;;;11.30;;
8349;SDS011;60699;48.946;8.412;2023-03-01T07:42:42;18.42;;;11.38;;
8349;SDS011;60699;48.946;8.412;2023-03-01T07:45:10;19.58;;;10.32;;
8349;SDS011;60699;48.946;8.412;2023-03-01T07:47:38;18.63;;;10.70;;
8349;SDS011;60699;48.946;8.412;2023-03-01T07:50:05;21.77;;;12.82;;
8349;SDS011;60699;48.946;8.412;2023-03-01T07:52:32;16.25;;;10.95;;
8349;SDS011;60699;48.946;8.412;2023-03-01T07:55:01;15.32;;;9.50;;
8349;SDS011;60699;48.946;8.412;2023-03-01T07:57:28;18.17;;;11.88;;
8349;SDS011;60699;48.946;8.412;2023-03-01T07:59:55;22.00;;;12.45;;
8349;SDS011;60699;48.946;8.412;2023-03-01T08:02:22;20.17;;;12.75;;
8349;SDS011;60699;48.946;8.412;2023-03-01T08:04:49;17.55;;;10.82;;
8349;SDS011;60699;48.946;8.412;2023-03-01T08:07:16;15.85;;;10.93;;
8349;SDS011;60699;48.946;8.412;2023-03-01T08:09:43;14.38;;;10.13;;
8349;SDS011;60699;48.946;8.412;2023-03-01T08:12:11;26.05;;;12.98;;
8349;SDS011;60699;48.946;8.412;2023-03-01T08:14:38;18.23;;;10.10;;
8349;SDS011;60699;48.946;8.412;2023-03-01T08:17:05;17.40;;;11.20;;
8349;SDS011;60699;48.946;8.412;2023-03-01T08:19:32;17.13;;;10.90;;
8349;SDS011;60699;48.946;8.412;2023-03-01T08:21:59;17.00;;;12.32;;
8349;SDS011;60699;48.946;8.412;2023-03-01T08:24:27;17.10;;;10.63;;
8349;SDS011;60699;48.946;8.412;2023-03-01T08:26:55;27.73;;;12.60;;
8349;SDS011;60699;48.946;8.412;2023-03-01T08:29:23;16.83;;;10.90;;
8349;SDS011;60699;48.946;8.412;2023-03-01T08:31:50;19.70;;;11.75;;
8349;SDS011;60699;48.946;8.412;2023-03-01T08:34:18;24.40;;;13.55;;
8349;SDS011;60699;48.946;8.412;2023-03-01T08:36:45;13.48;;;11.43;;
8349;SDS011;60699;48.946;8.412;2023-03-01T08:39:13;21.88;;;13.60;;
8349;SDS011;60699;48.946;8.412;2023-03-01T08:41:41;18.48;;;12.25;;
8349;SDS011;60699;48.946;8.412;2023-03-01T08:44:08;19.30;;;11.77;;
8349;SDS011;60699;48.946;8.412;2023-03-01T08:46:37;23.17;;;13.40;;
8349;SDS011;60699;48.946;8.412;2023-03-01T08:49:05;25.20;;;13.52;;
8349;SDS011;60699;48.946;8.412;2023-03-01T08:51:32;21.17;;;11.20;;
8349;SDS011;60699;48.946;8.412;2023-03-01T08:54:01;18.25;;;11.13;;
8349;SDS011;60699;48.946;8.412;2023-03-01T08:56:28;19.25;;;11.30;;
8349;SDS011;60699;48.946;8.412;2023-03-01T08:58:55;16.98;;;11.18;;
8349;SDS011;60699;48.946;8.412;2023-03-01T09:01:22;20.48;;;11.77;;
8349;SDS011;60699;48.946;8.412;2023-03-01T09:03:51;23.30;;;13.27;;
8349;SDS011;60699;48.946;8.412;2023-03-01T09:06:18;24.52;;;11.88;;
8349;SDS011;60699;48.946;8.412;2023-03-01T09:08:46;19.88;;;13.20;;
8349;SDS011;60699;48.946;8.412;2023-03-01T09:11:14;18.90;;;11.63;;
8349;SDS011;60699;48.946;8.412;2023-03-01T09:13:41;17.65;;;11.75;;
8349;SDS011;60699;48.946;8.412;2023-03-01T09:16:09;24.77;;;13.20;;
8349;SDS011;60699;48.946;8.412;2023-03-01T09:18:36;23.42;;;12.50;;
8349;SDS011;60699;48.946;8.412;2023-03-01T09:21:06;21.15;;;11.52;;
8349;SDS011;60699;48.946;8.412;2023-03-01T09:23:33;28.10;;;13.38;;
8349;SDS011;60699;48.946;8.412;2023-03-01T09:26:03;19.50;;;11.98;;
8349;SDS011;60699;48.946;8.412;2023-03-01T09:28:31;17.05;;;12.48;;
8349;SDS011;60699;48.946;8.412;2023-03-01T09:30:58;21.50;;;12.25;;
8349;SDS011;60699;48.946;8.412;2023-03-01T09:33:25;17.00;;;11.57;;
8349;SDS011;60699;48.946;8.412;2023-03-01T09:35:55;25.67;;;13.60;;
8349;SDS011;60699;48.946;8.412;2023-03-01T09:38:24;22.63;;;12.70;;
8349;SDS011;60699;48.946;8.412;2023-03-01T09:40:51;17.02;;;10.88;;
8349;SDS011;60699;48.946;8.412;2023-03-01T09:43:20;22.40;;;13.38;;
8349;SDS011;60699;48.946;8.412;2023-03-01T09:45:49;21.27;;;11.95;;
8349;SDS011;60699;48.946;8.412;2023-03-01T09:48:17;19.40;;;11.55;;
8349;SDS011;60699;48.946;8.412;2023-03-01T09:50:47;27.27;;;14.23;;
8349;SDS011;60699;48.946;8.412;2023-03-01T09:53:15;21.80;;;12.85;;
8349;SDS011;60699;48.946;8.412;2023-03-01T09:55:44;18.80;;;11.00;;
8349;SDS011;60699;48.946;8.412;2023-03-01T10:00:57;20.20;;;12.45;;
8349;SDS011;60699;48.946;8.412;2023-03-01T10:03:27;23.50;;;13.27;;
8349;SDS011;60699;48.946;8.412;2023-03-01T10:05:56;23.48;;;11.40;;
8349;SDS011;60699;48.946;8.412;2023-03-01T10:08:28;16.38;;;12.40;;
8349;SDS011;60699;48.946;8.412;2023-03-01T10:10:59;16.65;;;11.00;;
8349;SDS011;60699;48.946;8.412;2023-03-01T10:13:29;22.90;;;12.15;;
8349;SDS011;60699;48.946;8.412;2023-03-01T10:15:59;20.58;;;13.07;;
8349;SDS011;60699;48.946;8.412;2023-03-01T10:18:28;23.80;;;12.85;;
8349;SDS011;60699;48.946;8.412;2023-03-01T10:20:58;25.27;;;13.27;;
8349;SDS011;60699;48.946;8.412;2023-03-01T10:23:26;22.23;;;13.05;;
8349;SDS011;60699;48.946;8.412;2023-03-01T10:26:03;22.85;;;11.68;;
8349;SDS011;60699;48.946;8.412;2023-03-01T10:28:48;21.67;;;13.02;;
8349;SDS011;60699;48.946;8.412;2023-03-01T10:31:18;20.20;;;12.27;;
8349;SDS011;60699;48.946;8.412;2023-03-01T10:33:48;20.00;;;12.63;;
8349;SDS011;60699;48.946;8.412;2023-03-01T10:36:19;25.77;;;14.85;;
8349;SDS011;60699;48.946;8.412;2023-03-01T10:38:47;21.17;;;12.77;;
8349;SDS011;60699;48.946;8.412;2023-03-01T10:41:18;19.17;;;12.00;;
8349;SDS011;60699;48.946;8.412;2023-03-01T10:43:47;20.70;;;12.10;;
8349;SDS011;60699;48.946;8.412;2023-03-01T10:46:27;22.40;;;12.93;;
8349;SDS011;60699;48.946;8.412;2023-03-01T10:49:05;24.27;;;12.63;;
8349;SDS011;60699;48.946;8.412;2023-03-01T10:51:32;21.95;;;12.63;;
8349;SDS011;60699;48.946;8.412;2023-03-01T10:53:59;24.13;;;13.82;;
8349;SDS011;60699;48.946;8.412;2023-03-01T10:56:30;18.25;;;12.57;;
8349;SDS011;60699;48.946;8.412;2023-03-01T10:59:19;17.48;;;11.82;;
8349;SDS011;60699;48.946;8.412;2023-03-01T11:01:47;24.27;;;13.07;;
8349;SDS011;60699;48.946;8.412;2023-03-01T11:04:27;22.60;;;12.05;;
8349;SDS011;60699;48.946;8.412;2023-03-01T11:06:57;20.20;;;11.82;;
8349;SDS011;60699;48.946;8.412;2023-03-01T11:09:25;18.65;;;12.30;;
8349;SDS011;60699;48.946;8.412;2023-03-01T11:11:54;17.73;;;12.40;;
8349;SDS011;60699;48.946;8.412;2023-03-01T11:14:22;17.00;;;12.10;;
8349;SDS011;60699;48.946;8.412;2023-03-01T11:16:58;21.88;;;13.85;;
8349;SDS011;60699;48.946;8.412;2023-03-01T11:19:25;20.65;;;11.80;;
8349;SDS011;60699;48.946;8.412;2023-03-01T11:21:56;21.17;;;13.60;;
8349;SDS011;60699;48.946;8.412;2023-03-01T11:24:26;17.42;;;11.98;;
8349;SDS011;60699;48.946;8.412;2023-03-01T11:26:57;25.17;;;14.20;;
8349;SDS011;60699;48.946;8.412;2023-03-01T11:29:27;17.05;;;11.95;;
8349;SDS011;60699;48.946;8.412;2023-03-01T11:31:58;18.77;;;13.13;;
8349;SDS011;60699;48.946;8.412;2023-03-01T11:34:29;21.10;;;12.20;;
8349;SDS011;60699;48.946;8.412;2023-03-01T11:36:59;19.05;;;12.13;;
8349;SDS011;60699;48.946;8.412;2023-03-01T11:39:27;23.65;;;13.93;;
8349;SDS011;60699;48.946;8.412;2023-03-01T11:42:00;24.65;;;13.70;;
8349;SDS011;60699;48.946;8.412;2023-03-01T11:44:29;18.42;;;12.05;;
8349;SDS011;60699;48.946;8.412;2023-03-01T11:47:05;21.70;;;13.73;;
8349;SDS011;60699;48.946;8.412;2023-03-01T11:49:41;21.33;;;12.45;;
8349;SDS011;60699;48.946;8.412;2023-03-01T11:52:16;25.45;;;13.48;;
8349;SDS011;60699;48.946;8.412;2023-03-01T11:54:51;25.48;;;12.82;;
8349;SDS011;60699;48.946;8.412;2023-03-01T11:57:26;24.23;;;13.27;;
8349;SDS011;60699;48.946;8.412;2023-03-01T12:02:55;24.40;;;13.85;;
8349;SDS011;60699;48.946;8.412;2023-03-01T12:05:30;21.02;;;12.50;;
8349;SDS011;60699;48.946;8.412;2023-03-01T12:08:04;20.20;;;12.80;;
8349;SDS011;60699;48.946;8.412;2023-03-01T12:10:34;21.75;;;13.73;;
8349;SDS011;60699;48.946;8.412;2023-03-01T12:13:11;21.10;;;12.77;;
8349;SDS011;60699;48.946;8.412;2023-03-01T12:15:44;24.70;;;13.35;;
8349;SDS011;60699;48.946;8.412;2023-03-01T12:18:15;22.77;;;12.10;;
8349;SDS011;60699;48.946;8.412;2023-03-01T12:20:47;24.00;;;13.32;;
8349;SDS011;60699;48.946;8.412;2023-03-01T12:23:24;20.30;;;13.05;;
8349;SDS011;60699;48.946;8.412;2023-03-01T12:25:53;23.52;;;14.43;;
8349;SDS011;60699;48.946;8.412;2023-03-01T12:28:35;21.15;;;11.82;;
8349;SDS011;60699;48.946;8.412;2023-03-01T12:31:08;21.58;;;13.30;;
8349;SDS011;60699;48.946;8.412;2023-03-01T12:33:41;18.73;;;12.07;;
8349;SDS011;60699;48.946;8.412;2023-03-01T12:39:03;22.20;;;12.27;;
8349;SDS011;60699;48.946;8.412;2023-03-01T12:41:41;23.13;;;12.13;;
8349;SDS011;60699;48.946;8.412;2023-03-01T12:44:23;20.20;;;12.52;;
8349;SDS011;60699;48.946;8.412;2023-03-01T12:47:00;20.52;;;11.60;;
8349;SDS011;60699;48.946;8.412;2023-03-01T12:49:33;23.60;;;12.13;;
8349;SDS011;60699;48.946;8.412;2023-03-01T12:52:02;20.75;;;12.63;;
8349;SDS011;60699;48.946;8.412;2023-03-01T12:54:31;21.98;;;13.50;;
8349;SDS011;60699;48.946;8.412;2023-03-01T12:56:59;21.58;;;13.02;;
8349;SDS011;60699;48.946;8.412;2023-03-01T12:59:31;21.65;;;13.80;;
8349;SDS011;60699;48.946;8.412;2023-03-01T13:02:04;24.45;;;12.95;;
8349;SDS011;60699;48.946;8.412;2023-03-01T13:04:39;25.17;;;13.70;;
8349;SDS011;60699;48.946;8.412;2023-03-01T13:07:13;23.20;;;13.10;;
8349;SDS011;60699;48.946;8.412;2023-03-01T13:09:43;24.23;;;13.50;;
8349;SDS011;60699;48.946;8.412;2023-03-01T13:15:01;19.20;;;12.30;;
8349;SDS011;60699;48.946;8.412;2023-03-01T13:17:39;20.30;;;13.07;;
8349;SDS011;60699;48.946;8.412;2023-03-01T13:20:15;23.55;;;13.07;;
8349;SDS011;60699;48.946;8.412;2023-03-01T13:22:42;18.00;;;12.07;;
8349;SDS011;60699;48.946;8.412;2023-03-01T13:25:14;20.00;;;12.40;;
8349;SDS011;60699;48.946;8.412;2023-03-01T13:27:43;24.33;;;13.50;;
8349;SDS011;60699;48.946;8.412;2023-03-01T13:33:09;24.40;;;14.50;;
8349;SDS011;60699;48.946;8.412;2023-03-01T13:36:00;21.40;;;13.05;;
8349;SDS011;60699;48.946;8.412;2023-03-01T13:38:37;22.05;;;13.00;;
8349;SDS011;60699;48.946;8.412;2023-03-01T13:41:04;22.60;;;12.65;;
8349;SDS011;60699;48.946;8.412;2023-03-01T13:43:32;22.30;;;12.65;;
8349;SDS011;60699;48.946;8.412;2023-03-01T13:46:01;26.25;;;14.52;;
8349;SDS011;60699;48.946;8.412;2023-03-01T13:48:29;20.95;;;13.40;;
8349;SDS011;60699;48.946;8.412;2023-03-01T13:50:57;19.55;;;12.45;;
8349;SDS011;60699;48.946;8.412;2023-03-01T13:53:27;17.75;;;13.38;;
8349;SDS011;60699;48.946;8.412;2023-03-01T13:55:57;19.58;;;12.18;;
8349;SDS011;60699;48.946;8.412;2023-03-01T13:58:26;19.73;;;12.45;;
8349;SDS011;60699;48.946;8.412;2023-03-01T14:00:57;19.83;;;12.77;;
8349;SDS011;60699;48.946;8.412;2023-03-01T14:03:25;24.55;;;13.10;;
8349;SDS011;60699;48.946;8.412;2023-03-01T14:06:03;21.17;;;13.23;;
8349;SDS011;60699;48.946;8.412;2023-03-01T14:08:34;19.25;;;12.98;;
8349;SDS011;60699;48.946;8.412;2023-03-01T14:11:23;15.70;;;12.60;;
8349;SDS011;60699;48.946;8.412;2023-03-01T14:14:08;19.27;;;13.52;;
8349;SDS011;60699;48.946;8.412;2023-03-01T14:16:39;21.63;;;13.65;;
8349;SDS011;60699;48.946;8.412;2023-03-01T14:19:12;18.52;;;12.50;;
8349;SDS011;60699;48.946;8.412;2023-03-01T14:21:41;21.08;;;12.32;;
8349;SDS011;60699;48.946;8.412;2023-03-01T14:24:16;24.52;;;11.75;;
8349;SDS011;60699;48.946;8.412;2023-03-01T14:26:43;17.88;;;12.50;;
8349;SDS011;60699;48.946;8.412;2023-03-01T14:29:23;18.23;;;11.02;;
8349;SDS011;60699;48.946;8.412;2023-03-01T14:31:50;15.27;;;10.30;;
8349;SDS011;60699;48.946;8.412;2023-03-01T14:34:18;22.02;;;12.45;;
8349;SDS011;60699;48.946;8.412;2023-03-01T14:36:45;19.52;;;11.55;;
8349;SDS011;60699;48.946;8.412;2023-03-01T14:39:17;16.55;;;11.63;;
8349;SDS011;60699;48.946;8.412;2023-03-01T14:41:45;20.10;;;11.70;;
8349;SDS011;60699;48.946;8.412;2023-03-01T14:44:13;17.73;;;12.02;;
8349;SDS011;60699;48.946;8.412;2023-03-01T14:46:41;22.08;;;12.38;;
8349;SDS011;60699;48.946;8.412;2023-03-01T14:49:10;19.52;;;13.75;;
8349;SDS011;60699;48.946;8.412;2023-03-01T14:51:38;23.15;;;13.48;;
8349;SDS011;60699;48.946;8.412;2023-03-01T14:54:10;18.02;;;11.20;;
8349;SDS011;60699;48.946;8.412;2023-03-01T14:56:45;18.35;;;12.05;;
8349;SDS011;60699;48.946;8.412;2023-03-01T14:59:12;18.73;;;12.98;;
8349;SDS011;60699;48.946;8.412;2023-03-01T15:01:40;27.70;;;13.93;;
8349;SDS011;60699;48.946;8.412;2023-03-01T15:04:08;22.60;;;14.57;;
8349;SDS011;60699;48.946;8.412;2023-03-01T15:06:37;21.70;;;11.23;;